sensor_id;sensor_type;location;lat;lon;timestamp;pressure;altitude;pressure_sealevel;temperature;humidity
61119;BME280;51448;51.660;5.824;2022-12-11T00:01:34;101071.34;;;0.35;100.00
61119;BME280;51448;51.660;5.824;2022-12-11T00:04:01;101061.78;;;0.32;100.00
61119;BME280;51448;51.660;5.824;2022-12-11T00:06:29;101062.63;;;0.31;100.00
61119;BME280;51448;51.660;5.824;2022-12-11T00:08:56;101065.25;;;0.33;100.00
61119;BME280;51448;51.660;5.824;2022-12-11T00:11:24;101058.38;;;0.33;100.00
61119;BME280;51448;51.660;5.824;2022-12-11T00:13:54;101058.38;;;0.33;100.00
61119;BME280;51448;51.660;5.824;2022-12-11T00:16:22;101062.69;;;0.34;100.00
61119;BME280;51448;51.660;5.824;2022-12-11T00:18:54;101052.31;;;0.34;100.00
61119;BME280;51448;51.660;5.824;2022-12-11T00:21:21;101047.19;;;0.36;100.00
61119;BME280;51448;51.660;5.824;2022-12-11T00:23:49;101050.66;;;0.38;100.00
61119;BME280;51448;51.660;5.824;2022-12-11T00:26:17;101053.28;;;0.39;100.00
61119;BME280;51448;51.660;5.824;2022-12-11T00:28:44;101050.75;;;0.43;100.00
61119;BME280;51448;51.660;5.824;2022-12-11T00:31:15;101054.22;;;0.45;100.00
61119;BME280;51448;51.660;5.824;2022-12-11T00:33:44;101058.56;;;0.46;100.00
61119;BME280;51448;51.660;5.824;2022-12-11T00:36:14;101059.44;;;0.46;100.00
61119;BME280;51448;51.660;5.824;2022-12-11T00:38:43;101068.03;;;0.44;100.00
61119;BME280;51448;51.660;5.824;2022-12-11T00:41:11;101065.41;;;0.42;100.00
61119;BME280;51448;51.660;5.824;2022-12-11T00:43:39;101061.94;;;0.42;100.00
61119;BME280;51448;51.660;5.824;2022-12-11T00:46:07;101057.59;;;0.39;100.00
61119;BME280;51448;51.660;5.824;2022-12-11T00:48:35;101055.00;;;0.39;100.00
61119;BME280;51448;51.660;5.824;2022-12-11T00:51:02;101055.00;;;0.40;100.00
61119;BME280;51448;51.660;5.824;2022-12-11T00:53:30;101056.78;;;0.42;100.00
61119;BME280;51448;51.660;5.824;2022-12-11T00:55:57;101051.63;;;0.43;100.00
61119;BME280;51448;51.660;5.824;2022-12-11T00:58:25;101051.63;;;0.45;100.00
61119;BME280;51448;51.660;5.824;2022-12-11T01:00:52;101058.56;;;0.46;100.00
61119;BME280;51448;51.660;5.824;2022-12-11T01:03:20;101051.66;;;0.46;100.00
61119;BME280;51448;51.660;5.824;2022-12-11T01:05:52;101053.44;;;0.49;100.00
61119;BME280;51448;51.660;5.824;2022-12-11T01:08:20;101038.75;;;0.48;100.00
61119;BME280;51448;51.660;5.824;2022-12-11T01:10:48;101038.75;;;0.48;100.00
61119;BME280;51448;51.660;5.824;2022-12-11T01:13:16;101039.59;;;0.47;100.00
61119;BME280;51448;51.660;5.824;2022-12-11T01:15:44;101031.00;;;0.48;100.00
61119;BME280;51448;51.660;5.824;2022-12-11T01:18:13;101037.91;;;0.49;100.00
61119;BME280;51448;51.660;5.824;2022-12-11T01:20:41;101026.66;;;0.47;100.00
61119;BME280;51448;51.660;5.824;2022-12-11T01:23:11;101025.78;;;0.46;100.00
61119;BME280;51448;51.660;5.824;2022-12-11T01:25:40;101028.41;;;0.48;100.00
61119;BME280;51448;51.660;5.824;2022-12-11T01:28:08;101041.38;;;0.51;100.00
61119;BME280;51448;51.660;5.824;2022-12-11T01:30:36;101036.22;;;0.49;100.00
61119;BME280;51448;51.660;5.824;2022-12-11T01:33:04;101040.53;;;0.50;100.00
61119;BME280;51448;51.660;5.824;2022-12-11T01:35:33;101038.78;;;0.51;100.00
61119;BME280;51448;51.660;5.824;2022-12-11T01:38:01;101041.34;;;0.48;100.00
61119;BME280;51448;51.660;5.824;2022-12-11T01:40:29;101046.56;;;0.49;100.00
61119;BME280;51448;51.660;5.824;2022-12-11T01:42:56;101044.84;;;0.50;100.00
61119;BME280;51448;51.660;5.824;2022-12-11T01:45:29;101037.09;;;0.51;100.00
61119;BME280;51448;51.660;5.824;2022-12-11T01:48:08;101037.06;;;0.50;100.00
61119;BME280;51448;51.660;5.824;2022-12-11T01:50:52;101039.66;;;0.50;100.00
61119;BME280;51448;51.660;5.824;2022-12-11T01:53:27;101050.00;;;0.50;100.00
61119;BME280;51448;51.660;5.824;2022-12-11T01:55:59;101031.91;;;0.50;100.00
61119;BME280;51448;51.660;5.824;2022-12-11T01:58:33;101031.94;;;0.53;100.00
61119;BME280;51448;51.660;5.824;2022-12-11T02:01:04;101026.75;;;0.51;100.00
61119;BME280;51448;51.660;5.824;2022-12-11T02:03:32;101028.50;;;0.54;100.00
61119;BME280;51448;51.660;5.824;2022-12-11T02:06:00;101030.25;;;0.53;100.00
61119;BME280;51448;51.660;5.824;2022-12-11T02:08:28;101025.91;;;0.54;100.00
61119;BME280;51448;51.660;5.824;2022-12-11T02:11:09;101025.13;;;0.58;100.00
61119;BME280;51448;51.660;5.824;2022-12-11T02:13:55;101032.88;;;0.58;100.00
61119;BME280;51448;51.660;5.824;2022-12-11T02:28:53;101015.56;;;0.54;100.00
61119;BME280;51448;51.660;5.824;2022-12-11T02:31:53;101006.97;;;0.56;100.00
61119;BME280;51448;51.660;5.824;2022-12-11T02:34:33;101015.59;;;0.57;100.00
61119;BME280;51448;51.660;5.824;2022-12-11T02:37:15;101018.25;;;0.60;100.00
61119;BME280;51448;51.660;5.824;2022-12-11T02:39:49;101014.81;;;0.61;100.00
61119;BME280;51448;51.660;5.824;2022-12-11T02:42:20;101015.66;;;0.60;100.00
61119;BME280;51448;51.660;5.824;2022-12-11T02:44:55;101019.16;;;0.62;100.00
61119;BME280;51448;51.660;5.824;2022-12-11T02:47:27;101013.97;;;0.62;100.00
61119;BME280;51448;51.660;5.824;2022-12-11T02:49:59;101016.56;;;0.62;100.00
61119;BME280;51448;51.660;5.824;2022-12-11T02:52:29;101009.66;;;0.63;100.00
61119;BME280;51448;51.660;5.824;2022-12-11T02:54:59;101007.94;;;0.63;100.00
61119;BME280;51448;51.660;5.824;2022-12-11T02:57:34;101002.78;;;0.65;100.00
61119;BME280;51448;51.660;5.824;2022-12-11T03:00:08;100997.63;;;0.66;100.00
61119;BME280;51448;51.660;5.824;2022-12-11T03:02:37;100998.56;;;0.70;100.00
61119;BME280;51448;51.660;5.824;2022-12-11T03:05:08;100999.44;;;0.70;100.00
61119;BME280;51448;51.660;5.824;2022-12-11T03:07:40;100995.13;;;0.71;100.00
61119;BME280;51448;51.660;5.824;2022-12-11T03:10:12;100987.38;;;0.72;100.00
61119;BME280;51448;51.660;5.824;2022-12-11T03:12:47;100988.22;;;0.71;100.00
61119;BME280;51448;51.660;5.824;2022-12-11T03:15:22;100993.41;;;0.73;100.00
61119;BME280;51448;51.660;5.824;2022-12-11T03:18:08;100996.88;;;0.73;100.00
61119;BME280;51448;51.660;5.824;2022-12-11T03:23:50;101002.09;;;0.76;100.00
61119;BME280;51448;51.660;5.824;2022-12-11T03:26:31;100983.09;;;0.74;100.00
61119;BME280;51448;51.660;5.824;2022-12-11T03:29:19;100983.09;;;0.74;100.00
61119;BME280;51448;51.660;5.824;2022-12-11T03:31:55;100977.94;;;0.76;100.00
61119;BME280;51448;51.660;5.824;2022-12-11T03:34:40;100972.75;;;0.77;100.00
61119;BME280;51448;51.660;5.824;2022-12-11T03:37:12;100975.34;;;0.76;100.00
61119;BME280;51448;51.660;5.824;2022-12-11T03:39:46;100980.53;;;0.77;100.00
61119;BME280;51448;51.660;5.824;2022-12-11T03:42:20;100979.69;;;0.78;100.00
61119;BME280;51448;51.660;5.824;2022-12-11T03:44:52;100985.75;;;0.80;100.00
61119;BME280;51448;51.660;5.824;2022-12-11T03:47:24;100973.69;;;0.81;100.00
61119;BME280;51448;51.660;5.824;2022-12-11T03:49:55;100976.31;;;0.83;100.00
61119;BME280;51448;51.660;5.824;2022-12-11T03:52:26;100976.31;;;0.83;100.00
61119;BME280;51448;51.660;5.824;2022-12-11T03:54:58;100979.75;;;0.83;100.00
61119;BME280;51448;51.660;5.824;2022-12-11T03:57:33;100975.44;;;0.84;100.00
61119;BME280;51448;51.660;5.824;2022-12-11T04:00:06;100982.38;;;0.85;100.00
61119;BME280;51448;51.660;5.824;2022-12-11T04:02:40;100981.50;;;0.86;100.00
61119;BME280;51448;51.660;5.824;2022-12-11T04:05:09;100978.94;;;0.87;100.00
61119;BME280;51448;51.660;5.824;2022-12-11T04:07:37;100974.63;;;0.88;100.00
61119;BME280;51448;51.660;5.824;2022-12-11T04:10:05;100972.94;;;0.88;100.00
61119;BME280;51448;51.660;5.824;2022-12-11T04:12:32;100972.06;;;0.89;100.00
61119;BME280;51448;51.660;5.824;2022-12-11T04:15:01;100969.50;;;0.91;100.00
61119;BME280;51448;51.660;5.824;2022-12-11T04:17:30;100970.38;;;0.91;100.00
61119;BME280;51448;51.660;5.824;2022-12-11T04:20:19;100962.59;;;0.91;100.00
61119;BME280;51448;51.660;5.824;2022-12-11T04:23:10;100967.75;;;0.90;100.00
61119;BME280;51448;51.660;5.824;2022-12-11T04:26:08;100968.63;;;0.89;100.00
61119;BME280;51448;51.660;5.824;2022-12-11T04:28:42;100968.63;;;0.89;100.00
61119;BME280;51448;51.660;5.824;2022-12-11T04:31:13;100964.34;;;0.91;100.00
61119;BME280;51448;51.660;5.824;2022-12-11T04:33:43;100969.53;;;0.94;100.00
61119;BME280;51448;51.660;5.824;2022-12-11T04:36:12;100961.75;;;0.94;100.00
61119;BME280;51448;51.660;5.824;2022-12-11T04:38:40;100966.13;;;0.95;100.00
61119;BME280;51448;51.660;5.824;2022-12-11T04:41:13;100960.97;;;0.96;100.00
61119;BME280;51448;51.660;5.824;2022-12-11T04:43:42;100960.97;;;0.96;100.00
61119;BME280;51448;51.660;5.824;2022-12-11T04:46:16;100968.72;;;0.98;100.00
61119;BME280;51448;51.660;5.824;2022-12-11T04:48:45;100962.63;;;0.93;100.00
61119;BME280;51448;51.660;5.824;2022-12-11T04:51:19;100967.81;;;0.93;100.00
61119;BME280;51448;51.660;5.824;2022-12-11T04:53:46;100960.97;;;0.96;100.00
61119;BME280;51448;51.660;5.824;2022-12-11T04:56:15;100971.34;;;0.99;100.00
61119;BME280;51448;51.660;5.824;2022-12-11T04:58:44;100966.19;;;1.01;100.00
61119;BME280;51448;51.660;5.824;2022-12-11T05:01:16;100961.00;;;1.01;100.00
61119;BME280;51448;51.660;5.824;2022-12-11T05:03:46;100960.16;;;1.00;100.00
61119;BME280;51448;51.660;5.824;2022-12-11T05:06:14;100967.91;;;1.02;100.00
61119;BME280;51448;51.660;5.824;2022-12-11T05:08:42;100962.72;;;1.02;100.00
61119;BME280;51448;51.660;5.824;2022-12-11T05:11:14;100964.50;;;1.03;100.00
61119;BME280;51448;51.660;5.824;2022-12-11T05:13:42;100967.91;;;1.02;100.00
61119;BME280;51448;51.660;5.824;2022-12-11T05:16:14;100969.66;;;1.03;100.00
61119;BME280;51448;51.660;5.824;2022-12-11T05:18:43;100962.72;;;1.02;100.00
61119;BME280;51448;51.660;5.824;2022-12-11T05:21:13;100967.91;;;1.02;100.00
61119;BME280;51448;51.660;5.824;2022-12-11T05:23:41;100962.72;;;1.02;100.00
61119;BME280;51448;51.660;5.824;2022-12-11T05:26:19;100967.09;;;1.03;100.00
61119;BME280;51448;51.660;5.824;2022-12-11T05:28:51;100962.75;;;1.04;100.00
61119;BME280;51448;51.660;5.824;2022-12-11T05:31:23;100961.91;;;1.03;100.00
61119;BME280;51448;51.660;5.824;2022-12-11T05:33:52;100960.19;;;1.04;100.00
61119;BME280;51448;51.660;5.824;2022-12-11T05:36:29;100961.94;;;1.05;100.00
61119;BME280;51448;51.660;5.824;2022-12-11T05:38:59;100954.13;;;1.03;100.00
61119;BME280;51448;51.660;5.824;2022-12-11T05:41:29;100945.50;;;1.04;100.00
61119;BME280;51448;51.660;5.824;2022-12-11T05:43:57;100946.38;;;1.05;100.00
61119;BME280;51448;51.660;5.824;2022-12-11T05:46:27;100940.31;;;1.04;100.00
61119;BME280;51448;51.660;5.824;2022-12-11T05:48:58;100946.38;;;1.05;100.00
61119;BME280;51448;51.660;5.824;2022-12-11T05:51:28;100933.41;;;1.03;100.00
61119;BME280;51448;51.660;5.824;2022-12-11T05:53:58;100933.41;;;1.03;100.00
61119;BME280;51448;51.660;5.824;2022-12-11T05:56:30;100939.47;;;1.05;100.00
61119;BME280;51448;51.660;5.824;2022-12-11T05:59:00;100935.16;;;1.06;100.00
61119;BME280;51448;51.660;5.824;2022-12-11T06:01:49;100935.19;;;1.07;100.00
61119;BME280;51448;51.660;5.824;2022-12-11T06:04:16;100936.03;;;1.06;100.00
61119;BME280;51448;51.660;5.824;2022-12-11T06:06:44;100939.47;;;1.05;100.00
61119;BME280;51448;51.660;5.824;2022-12-11T06:09:15;100939.47;;;1.05;100.00
61119;BME280;51448;51.660;5.824;2022-12-11T06:11:43;100942.91;;;1.03;100.00
61119;BME280;51448;51.660;5.824;2022-12-11T06:14:11;100943.78;;;1.03;100.00
61119;BME280;51448;51.660;5.824;2022-12-11T06:16:39;100942.91;;;1.04;100.00
61119;BME280;51448;51.660;5.824;2022-12-11T06:19:12;100951.56;;;1.05;100.00
61119;BME280;51448;51.660;5.824;2022-12-11T06:21:41;100944.69;;;1.07;100.00
61119;BME280;51448;51.660;5.824;2022-12-11T06:24:11;100948.13;;;1.06;100.00
61119;BME280;51448;51.660;5.824;2022-12-11T06:26:38;100952.44;;;1.05;100.00
61119;BME280;51448;51.660;5.824;2022-12-11T06:29:06;100951.56;;;1.06;100.00
61119;BME280;51448;51.660;5.824;2022-12-11T06:31:39;100945.50;;;1.04;100.00
61119;BME280;51448;51.660;5.824;2022-12-11T06:34:07;100945.50;;;1.04;100.00
61119;BME280;51448;51.660;5.824;2022-12-11T06:36:35;100952.41;;;1.04;100.00
61119;BME280;51448;51.660;5.824;2022-12-11T06:39:03;100947.19;;;1.02;100.00
61119;BME280;51448;51.660;5.824;2022-12-11T06:41:30;100948.91;;;1.02;100.00
61119;BME280;51448;51.660;5.824;2022-12-11T06:43:57;100952.34;;;0.99;100.00
61119;BME280;51448;51.660;5.824;2022-12-11T06:46:25;100947.97;;;0.95;100.00
61119;BME280;51448;51.660;5.824;2022-12-11T06:48:52;100944.53;;;0.94;100.00
61119;BME280;51448;51.660;5.824;2022-12-11T06:51:21;100947.97;;;0.93;100.00
61119;BME280;51448;51.660;5.824;2022-12-11T06:53:56;100947.09;;;0.93;100.00
61119;BME280;51448;51.660;5.824;2022-12-11T06:56:33;100950.50;;;0.92;100.00
61119;BME280;51448;51.660;5.824;2022-12-11T06:59:12;100951.41;;;0.94;100.00
61119;BME280;51448;51.660;5.824;2022-12-11T07:01:48;100949.69;;;0.93;100.00
61119;BME280;51448;51.660;5.824;2022-12-11T07:04:55;100957.44;;;0.93;100.00
61119;BME280;51448;51.660;5.824;2022-12-11T07:08:37;100960.84;;;0.89;100.00
61119;BME280;51448;51.660;5.824;2022-12-11T07:11:59;100959.09;;;0.88;100.00
61119;BME280;51448;51.660;5.824;2022-12-11T07:14:33;100960.84;;;0.89;100.00
61119;BME280;51448;51.660;5.824;2022-12-11T07:21:31;100955.59;;;0.83;100.00
61119;BME280;51448;51.660;5.824;2022-12-11T07:24:07;100957.31;;;0.84;100.00
61119;BME280;51448;51.660;5.824;2022-12-11T07:26:40;100963.38;;;0.84;100.00
61119;BME280;51448;51.660;5.824;2022-12-11T07:29:21;100967.66;;;0.84;100.00
61119;BME280;51448;51.660;5.824;2022-12-11T07:32:29;100965.06;;;0.84;100.00
61119;BME280;51448;51.660;5.824;2022-12-11T07:35:11;100966.84;;;0.85;100.00
61119;BME280;51448;51.660;5.824;2022-12-11T07:37:41;100966.88;;;0.86;100.00
61119;BME280;51448;51.660;5.824;2022-12-11T07:40:11;100980.69;;;0.88;100.00
61119;BME280;51448;51.660;5.824;2022-12-11T07:42:41;100972.94;;;0.90;100.00
61119;BME280;51448;51.660;5.824;2022-12-11T07:45:12;100985.00;;;0.89;100.00
61119;BME280;51448;51.660;5.824;2022-12-11T07:47:44;100988.47;;;0.90;100.00
61119;BME280;51448;51.660;5.824;2022-12-11T07:50:14;100978.09;;;0.90;100.00
61119;BME280;51448;51.660;5.824;2022-12-11T07:52:41;100978.16;;;0.93;100.00
61119;BME280;51448;51.660;5.824;2022-12-11T07:55:11;100976.47;;;0.95;100.00
61119;BME280;51448;51.660;5.824;2022-12-11T07:57:48;100979.94;;;0.97;100.00
61119;BME280;51448;51.660;5.824;2022-12-11T08:00:38;100977.38;;;0.98;100.00
61119;BME280;51448;51.660;5.824;2022-12-11T08:03:06;100978.28;;;1.00;100.00
61119;BME280;51448;51.660;5.824;2022-12-11T08:05:56;100977.41;;;1.02;100.00
61119;BME280;51448;51.660;5.824;2022-12-11T08:08:39;100980.00;;;1.02;100.00
61119;BME280;51448;51.660;5.824;2022-12-11T08:11:26;100986.88;;;0.99;100.00
61119;BME280;51448;51.660;5.824;2022-12-11T08:14:08;100974.75;;;0.95;100.00
61119;BME280;51448;51.660;5.824;2022-12-11T08:16:46;100975.59;;;0.94;100.00
61119;BME280;51448;51.660;5.824;2022-12-11T08:19:19;100974.72;;;0.94;100.00
61119;BME280;51448;51.660;5.824;2022-12-11T08:21:50;100978.19;;;0.96;100.00
61119;BME280;51448;51.660;5.824;2022-12-11T08:24:17;100972.19;;;0.97;100.00
61119;BME280;51448;51.660;5.824;2022-12-11T08:26:47;100970.44;;;0.97;100.00
61119;BME280;51448;51.660;5.824;2022-12-11T08:29:15;100972.19;;;0.97;100.00
61119;BME280;51448;51.660;5.824;2022-12-11T08:31:44;100972.19;;;0.97;100.00
61119;BME280;51448;51.660;5.824;2022-12-11T08:34:12;100968.72;;;0.98;100.00
61119;BME280;51448;51.660;5.824;2022-12-11T08:36:40;100968.75;;;0.99;100.00
61119;BME280;51448;51.660;5.824;2022-12-11T08:39:08;100965.31;;;1.02;100.00
61119;BME280;51448;51.660;5.824;2022-12-11T08:41:36;100971.41;;;1.03;100.00
61119;BME280;51448;51.660;5.824;2022-12-11T08:44:04;100977.47;;;1.05;100.00
61119;BME280;51448;51.660;5.824;2022-12-11T08:46:32;100974.84;;;1.03;100.00
61119;BME280;51448;51.660;5.824;2022-12-11T08:49:00;100968.81;;;1.03;100.00
61119;BME280;51448;51.660;5.824;2022-12-11T08:51:28;100974.84;;;1.03;100.00
61119;BME280;51448;51.660;5.824;2022-12-11T08:53:59;100977.47;;;1.05;100.00
61119;BME280;51448;51.660;5.824;2022-12-11T08:56:28;100967.13;;;1.05;100.00
61119;BME280;51448;51.660;5.824;2022-12-11T08:58:58;100966.22;;;1.04;100.00
61119;BME280;51448;51.660;5.824;2022-12-11T09:01:27;100965.34;;;1.04;100.00
61119;BME280;51448;51.660;5.824;2022-12-11T09:03:56;100972.25;;;1.03;100.00
61119;BME280;51448;51.660;5.824;2022-12-11T09:06:25;100963.63;;;1.04;100.00
61119;BME280;51448;51.660;5.824;2022-12-11T09:08:54;100971.41;;;1.04;100.00
61119;BME280;51448;51.660;5.824;2022-12-11T09:11:27;100968.84;;;1.06;100.00
61119;BME280;51448;51.660;5.824;2022-12-11T09:13:57;100967.97;;;1.05;100.00
61119;BME280;51448;51.660;5.824;2022-12-11T09:16:34;100962.75;;;1.04;100.00
61119;BME280;51448;51.660;5.824;2022-12-11T09:19:08;100960.19;;;1.05;100.00
61119;BME280;51448;51.660;5.824;2022-12-11T09:21:40;100952.44;;;1.05;100.00
61119;BME280;51448;51.660;5.824;2022-12-11T09:24:09;100945.53;;;1.07;100.00
61119;BME280;51448;51.660;5.824;2022-12-11T09:26:38;100947.28;;;1.08;100.00
61119;BME280;51448;51.660;5.824;2022-12-11T09:29:07;100949.88;;;1.10;100.00
61119;BME280;51448;51.660;5.824;2022-12-11T09:31:44;100947.31;;;1.11;100.00
61119;BME280;51448;51.660;5.824;2022-12-11T09:34:16;100945.56;;;1.10;100.00
61119;BME280;51448;51.660;5.824;2022-12-11T09:36:43;100945.63;;;1.13;100.00
61119;BME280;51448;51.660;5.824;2022-12-11T09:39:12;100956.00;;;1.13;100.00
61119;BME280;51448;51.660;5.824;2022-12-11T09:44:44;100958.53;;;1.10;100.00
61119;BME280;51448;51.660;5.824;2022-12-11T09:47:23;100960.28;;;1.11;100.00
61119;BME280;51448;51.660;5.824;2022-12-11T09:55:21;100953.44;;;1.15;100.00
61119;BME280;51448;51.660;5.824;2022-12-11T10:01:13;100951.72;;;1.18;100.00
61119;BME280;51448;51.660;5.824;2022-12-11T10:04:29;100944.78;;;1.16;100.00
61119;BME280;51448;51.660;5.824;2022-12-11T10:07:11;100949.06;;;1.14;100.00
61119;BME280;51448;51.660;5.824;2022-12-11T10:09:52;100949.06;;;1.14;100.00
61119;BME280;51448;51.660;5.824;2022-12-11T10:12:50;100948.22;;;1.13;100.00
61119;BME280;51448;51.660;5.824;2022-12-11T10:16:03;100943.91;;;1.15;100.00
61119;BME280;51448;51.660;5.824;2022-12-11T10:18:34;100947.34;;;1.14;100.00
61119;BME280;51448;51.660;5.824;2022-12-11T10:21:02;100949.13;;;1.17;100.00
61119;BME280;51448;51.660;5.824;2022-12-11T10:23:39;100947.41;;;1.17;100.00
61119;BME280;51448;51.660;5.824;2022-12-11T10:26:16;100951.75;;;1.20;100.00
61119;BME280;51448;51.660;5.824;2022-12-11T10:28:46;100952.63;;;1.19;100.00
61119;BME280;51448;51.660;5.824;2022-12-11T10:31:18;100945.69;;;1.19;100.00
61119;BME280;51448;51.660;5.824;2022-12-11T10:34:00;100945.72;;;1.23;100.00
61119;BME280;51448;51.660;5.824;2022-12-11T10:36:33;100942.28;;;1.24;100.00
61119;BME280;51448;51.660;5.824;2022-12-11T10:39:11;100943.19;;;1.26;100.00
61119;BME280;51448;51.660;5.824;2022-12-11T10:41:43;100940.59;;;1.26;100.00
61119;BME280;51448;51.660;5.824;2022-12-11T10:44:29;100940.56;;;1.24;100.00
61119;BME280;51448;51.660;5.824;2022-12-11T10:47:08;100935.41;;;1.26;100.00
61119;BME280;51448;51.660;5.824;2022-12-11T10:49:43;100937.13;;;1.27;100.00
61119;BME280;51448;51.660;5.824;2022-12-11T10:52:24;100935.44;;;1.27;100.00
61119;BME280;51448;51.660;5.824;2022-12-11T10:55:06;100933.69;;;1.28;100.00
61119;BME280;51448;51.660;5.824;2022-12-11T10:58:05;100927.63;;;1.26;100.00
61119;BME280;51448;51.660;5.824;2022-12-11T11:00:35;100925.03;;;1.26;100.00
61119;BME280;51448;51.660;5.824;2022-12-11T11:03:19;100931.13;;;1.28;100.00
61119;BME280;51448;51.660;5.824;2022-12-11T11:06:04;100925.06;;;1.29;100.00
61119;BME280;51448;51.660;5.824;2022-12-11T11:08:52;100919.03;;;1.28;100.00
61119;BME280;51448;51.660;5.824;2022-12-11T11:11:27;100918.19;;;1.31;100.00
61119;BME280;51448;51.660;5.824;2022-12-11T11:16:35;100925.13;;;1.35;100.00
61119;BME280;51448;51.660;5.824;2022-12-11T11:19:05;100919.94;;;1.35;100.00
61119;BME280;51448;51.660;5.824;2022-12-11T11:21:34;100922.59;;;1.38;100.00
61119;BME280;51448;51.660;5.824;2022-12-11T11:24:02;100925.19;;;1.38;100.00
61119;BME280;51448;51.660;5.824;2022-12-11T11:26:32;100916.53;;;1.39;100.00
61119;BME280;51448;51.660;5.824;2022-12-11T11:29:26;100914.84;;;1.39;100.00
61119;BME280;51448;51.660;5.824;2022-12-11T11:32:14;100915.72;;;1.42;100.00
61119;BME280;51448;51.660;5.824;2022-12-11T11:34:46;100907.94;;;1.40;100.00
61119;BME280;51448;51.660;5.824;2022-12-11T11:37:25;100911.41;;;1.42;100.00
61119;BME280;51448;51.660;5.824;2022-12-11T11:40:05;100907.94;;;1.42;100.00
61119;BME280;51448;51.660;5.824;2022-12-11T11:42:50;100910.53;;;1.42;100.00
61119;BME280;51448;51.660;5.824;2022-12-11T11:45:35;100899.28;;;1.41;100.00
61119;BME280;51448;51.660;5.824;2022-12-11T11:48:16;100895.81;;;1.39;100.00
61119;BME280;51448;51.660;5.824;2022-12-11T11:50:57;100902.69;;;1.37;100.00
61119;BME280;51448;51.660;5.824;2022-12-11T11:53:30;100895.78;;;1.36;100.00
61119;BME280;51448;51.660;5.824;2022-12-11T11:56:24;100889.72;;;1.34;100.00
61119;BME280;51448;51.660;5.824;2022-12-11T12:01:31;100890.59;;;1.36;100.00
61119;BME280;51448;51.660;5.824;2022-12-11T12:04:01;100888.91;;;1.39;100.00
61119;BME280;51448;51.660;5.824;2022-12-11T12:06:37;100888.06;;;1.40;100.00
61119;BME280;51448;51.660;5.824;2022-12-11T12:12:40;100875.97;;;1.43;100.00
61119;BME280;51448;51.660;5.824;2022-12-11T12:16:02;100878.59;;;1.44;100.00
61119;BME280;51448;51.660;5.824;2022-12-11T12:18:47;100886.38;;;1.44;100.00
61119;BME280;51448;51.660;5.824;2022-12-11T12:21:34;100883.75;;;1.43;100.00
61119;BME280;51448;51.660;5.824;2022-12-11T12:27:12;100880.28;;;1.40;100.00
61119;BME280;51448;51.660;5.824;2022-12-11T12:30:15;100882.00;;;1.40;100.00
61119;BME280;51448;51.660;5.824;2022-12-11T12:33:18;100876.81;;;1.40;100.00
61119;BME280;51448;51.660;5.824;2022-12-11T12:36:02;100872.50;;;1.37;100.00
61119;BME280;51448;51.660;5.824;2022-12-11T12:38:53;100873.34;;;1.38;100.00
61119;BME280;51448;51.660;5.824;2022-12-11T12:44:57;100872.50;;;1.37;100.00
61119;BME280;51448;51.660;5.824;2022-12-11T12:47:31;100871.63;;;1.38;100.00
61119;BME280;51448;51.660;5.824;2022-12-11T12:50:02;100873.38;;;1.39;100.00
61119;BME280;51448;51.660;5.824;2022-12-11T12:52:36;100871.66;;;1.43;100.00
61119;BME280;51448;51.660;5.824;2022-12-11T12:57:44;100861.38;;;1.51;100.00
61119;BME280;51448;51.660;5.824;2022-12-11T13:00:33;100857.97;;;1.56;100.00
61119;BME280;51448;51.660;5.824;2022-12-11T13:03:16;100864.94;;;1.60;100.00
61119;BME280;51448;51.660;5.824;2022-12-11T13:06:05;100858.91;;;1.65;100.00
61119;BME280;51448;51.660;5.824;2022-12-11T13:08:48;100861.53;;;1.66;100.00
61119;BME280;51448;51.660;5.824;2022-12-11T13:11:19;100848.53;;;1.65;100.00
61119;BME280;51448;51.660;5.824;2022-12-11T13:14:01;100857.19;;;1.65;100.00
61119;BME280;51448;51.660;5.824;2022-12-11T13:16:40;100861.44;;;1.58;100.00
61119;BME280;51448;51.660;5.824;2022-12-11T13:32:43;100881.31;;;1.56;100.00
61119;BME280;51448;51.660;5.824;2022-12-11T13:35:19;100877.00;;;1.58;100.00
61119;BME280;51448;51.660;5.824;2022-12-11T13:37:49;100871.84;;;1.61;100.00
61119;BME280;51448;51.660;5.824;2022-12-11T13:40:23;100884.81;;;1.63;100.00
61119;BME280;51448;51.660;5.824;2022-12-11T13:42:59;100874.47;;;1.65;100.00
61119;BME280;51448;51.660;5.824;2022-12-11T13:45:43;100875.34;;;1.67;100.00
61119;BME280;51448;51.660;5.824;2022-12-11T13:50:55;100887.38;;;1.61;100.00
61119;BME280;51448;51.660;5.824;2022-12-11T13:53:25;100880.47;;;1.59;100.00
61119;BME280;51448;51.660;5.824;2022-12-11T13:58:37;100876.97;;;1.57;100.00
61119;BME280;51448;51.660;5.824;2022-12-11T14:01:11;100875.25;;;1.57;100.00
61119;BME280;51448;51.660;5.824;2022-12-11T14:04:04;100883.91;;;1.56;100.00
61119;BME280;51448;51.660;5.824;2022-12-11T14:06:35;100887.31;;;1.55;100.00
61119;BME280;51448;51.660;5.824;2022-12-11T14:09:06;100874.38;;;1.57;100.00
61119;BME280;51448;51.660;5.824;2022-12-11T14:11:37;100880.44;;;1.57;100.00
61119;BME280;51448;51.660;5.824;2022-12-11T14:17:22;100879.59;;;1.58;100.00
61119;BME280;51448;51.660;5.824;2022-12-11T14:19:55;100883.91;;;1.56;100.00
61119;BME280;51448;51.660;5.824;2022-12-11T14:22:27;100894.25;;;1.56;100.00
61119;BME280;51448;51.660;5.824;2022-12-11T14:24:58;100883.91;;;1.56;100.00
61119;BME280;51448;51.660;5.824;2022-12-11T14:27:29;100890.81;;;1.56;100.00
61119;BME280;51448;51.660;5.824;2022-12-11T14:29:57;100883.00;;;1.54;100.00
61119;BME280;51448;51.660;5.824;2022-12-11T14:32:41;100879.53;;;1.52;100.00
61119;BME280;51448;51.660;5.824;2022-12-11T14:35:24;100884.69;;;1.49;100.00
61119;BME280;51448;51.660;5.824;2022-12-11T14:38:02;100887.25;;;1.46;100.00
61119;BME280;51448;51.660;5.824;2022-12-11T14:40:38;100888.97;;;1.46;100.00